BKB5 KCVH-KMFR
Flight info
| Callsign | BKB5 |
|---|---|
| Flight time | 1h 12m |
| Altitude | 30000 |
| Route | SAC RDD OED |
| Aircraft | P46T/L-SBDGRWY/SB1 |
Departure
| Time | 2026-04-20 15:45 |
|---|---|
| Airport | Hollister Municipal Airport (KCVH) |
Arrival
| Time | 2026-04-20 16:58 |
|---|---|
| Airport | Rogue Valley International-Medford Airport (KMFR) |
| Time | Latitude | Longitude | Altitude | Speed | Heading |
|---|---|---|---|---|---|
| 2026-04-20 15:45 | 37.13476 | -121.57012 | 10534 ft | 191 kts | 345° |
| 2026-04-20 15:45 | 37.14772 | -121.57307 | 10871 ft | 193 kts | 345° |
| 2026-04-20 15:46 | 37.16092 | -121.57601 | 11295 ft | 193 kts | 344° |
| 2026-04-20 15:46 | 37.17418 | -121.57906 | 11686 ft | 194 kts | 344° |
| 2026-04-20 15:46 | 37.18751 | -121.58211 | 12095 ft | 196 kts | 345° |
| 2026-04-20 15:46 | 37.20102 | -121.58488 | 12502 ft | 197 kts | 345° |
| 2026-04-20 15:47 | 37.21459 | -121.58760 | 12890 ft | 198 kts | 344° |
| 2026-04-20 15:47 | 37.22819 | -121.59040 | 13279 ft | 199 kts | 344° |
| 2026-04-20 15:47 | 37.24188 | -121.59320 | 13650 ft | 200 kts | 343° |
| 2026-04-20 15:47 | 37.25566 | -121.59600 | 13996 ft | 201 kts | 343° |
| 2026-04-20 15:48 | 37.26953 | -121.59886 | 14300 ft | 203 kts | 343° |
| 2026-04-20 15:48 | 37.28356 | -121.60194 | 14539 ft | 207 kts | 343° |
| 2026-04-20 15:48 | 37.29775 | -121.60460 | 14862 ft | 207 kts | 344° |
| 2026-04-20 15:48 | 37.31203 | -121.60745 | 15165 ft | 209 kts | 342° |
| 2026-04-20 15:49 | 37.32638 | -121.61050 | 15529 ft | 209 kts | 342° |
| 2026-04-20 15:49 | 37.34079 | -121.61342 | 15826 ft | 210 kts | 342° |
| 2026-04-20 15:49 | 37.35530 | -121.61638 | 16108 ft | 213 kts | 341° |
| 2026-04-20 15:49 | 37.36997 | -121.61941 | 16322 ft | 213 kts | 342° |
| 2026-04-20 15:50 | 37.38459 | -121.62254 | 16615 ft | 215 kts | 342° |
| 2026-04-20 15:50 | 37.39944 | -121.62547 | 16913 ft | 217 kts | 342° |
| 2026-04-20 15:50 | 37.41437 | -121.62850 | 17223 ft | 218 kts | 342° |
| 2026-04-20 15:50 | 37.42940 | -121.63162 | 17534 ft | 220 kts | 342° |
| 2026-04-20 15:51 | 37.44452 | -121.63475 | 17873 ft | 221 kts | 341° |
| 2026-04-20 15:51 | 37.45976 | -121.63783 | 18190 ft | 222 kts | 342° |
| 2026-04-20 15:51 | 37.47508 | -121.64092 | 18468 ft | 223 kts | 341° |
| 2026-04-20 15:51 | 37.49039 | -121.64423 | 18719 ft | 225 kts | 340° |
| 2026-04-20 15:52 | 37.50587 | -121.64741 | 18921 ft | 226 kts | 341° |
| 2026-04-20 15:52 | 37.52139 | -121.65049 | 19187 ft | 226 kts | 341° |
| 2026-04-20 15:52 | 37.53691 | -121.65373 | 19514 ft | 226 kts | 340° |
| 2026-04-20 15:53 | 37.56827 | -121.66025 | 20086 ft | 230 kts | 340° |
| 2026-04-20 15:53 | 37.58390 | -121.66347 | 20358 ft | 231 kts | 339° |
| 2026-04-20 15:53 | 37.60000 | -121.66678 | 20624 ft | 232 kts | 340° |
| 2026-04-20 15:53 | 37.61565 | -121.66994 | 20871 ft | 232 kts | 339° |
| 2026-04-20 15:54 | 37.63163 | -121.67331 | 21117 ft | 234 kts | 339° |
| 2026-04-20 15:54 | 37.64774 | -121.67665 | 21385 ft | 235 kts | 339° |
| 2026-04-20 15:54 | 37.66414 | -121.68007 | 21522 ft | 243 kts | 339° |
| 2026-04-20 15:54 | 37.68091 | -121.68351 | 21763 ft | 245 kts | 339° |
| 2026-04-20 15:55 | 37.69775 | -121.68696 | 22006 ft | 246 kts | 338° |
| 2026-04-20 15:55 | 37.71465 | -121.69046 | 22245 ft | 247 kts | 338° |
| 2026-04-20 15:55 | 37.73161 | -121.69398 | 22496 ft | 248 kts | 338° |
| 2026-04-20 15:55 | 37.74865 | -121.69752 | 22738 ft | 249 kts | 338° |
| 2026-04-20 15:56 | 37.76577 | -121.70106 | 22990 ft | 250 kts | 338° |
| 2026-04-20 15:56 | 37.78296 | -121.70445 | 23170 ft | 250 kts | 338° |
| 2026-04-20 15:56 | 37.80014 | -121.70819 | 23387 ft | 251 kts | 336° |
| 2026-04-20 15:56 | 37.81741 | -121.71187 | 23595 ft | 253 kts | 337° |
| 2026-04-20 15:57 | 37.83480 | -121.71541 | 23770 ft | 254 kts | 338° |
| 2026-04-20 15:57 | 37.85224 | -121.71896 | 23952 ft | 254 kts | 337° |
| 2026-04-20 15:57 | 37.86966 | -121.72262 | 24136 ft | 254 kts | 337° |
| 2026-04-20 15:57 | 37.88706 | -121.72627 | 24330 ft | 254 kts | 337° |
| 2026-04-20 15:58 | 37.90449 | -121.72988 | 24518 ft | 254 kts | 338° |
| 2026-04-20 15:58 | 37.92192 | -121.73350 | 24704 ft | 254 kts | 338° |
| 2026-04-20 15:58 | 37.93936 | -121.73714 | 24886 ft | 254 kts | 338° |
| 2026-04-20 15:58 | 37.95694 | -121.74084 | 24968 ft | 260 kts | 338° |
| 2026-04-20 15:59 | 37.97503 | -121.74466 | 24971 ft | 268 kts | 338° |
| 2026-04-20 15:59 | 37.99366 | -121.74853 | 24975 ft | 275 kts | 339° |
| 2026-04-20 15:59 | 38.01270 | -121.75247 | 24977 ft | 280 kts | 339° |
| 2026-04-20 15:59 | 38.03204 | -121.75648 | 24978 ft | 284 kts | 339° |
| 2026-04-20 16:00 | 38.05169 | -121.76059 | 24975 ft | 288 kts | 339° |
| 2026-04-20 16:00 | 38.07154 | -121.76474 | 24977 ft | 290 kts | 339° |
| 2026-04-20 16:00 | 38.09153 | -121.76891 | 24976 ft | 292 kts | 339° |
| 2026-04-20 16:00 | 38.11163 | -121.77310 | 24975 ft | 293 kts | 339° |
| 2026-04-20 16:01 | 38.13155 | -121.77727 | 24972 ft | 295 kts | 339° |
| 2026-04-20 16:01 | 38.15180 | -121.78152 | 24974 ft | 295 kts | 340° |
| 2026-04-20 16:01 | 38.17205 | -121.78575 | 24974 ft | 295 kts | 340° |
| 2026-04-20 16:01 | 38.19232 | -121.79001 | 24978 ft | 295 kts | 340° |
| 2026-04-20 16:02 | 38.21261 | -121.79427 | 24982 ft | 295 kts | 340° |
| 2026-04-20 16:02 | 38.23289 | -121.79853 | 24989 ft | 296 kts | 340° |
| 2026-04-20 16:02 | 38.25325 | -121.80282 | 24988 ft | 297 kts | 340° |
| 2026-04-20 16:02 | 38.27367 | -121.80710 | 24992 ft | 297 kts | 340° |
| 2026-04-20 16:03 | 38.29409 | -121.81140 | 24995 ft | 298 kts | 340° |
| 2026-04-20 16:03 | 38.31454 | -121.81571 | 24999 ft | 298 kts | 340° |
| 2026-04-20 16:03 | 38.33502 | -121.82002 | 25002 ft | 298 kts | 340° |
| 2026-04-20 16:03 | 38.35546 | -121.82433 | 25006 ft | 298 kts | 340° |
| 2026-04-20 16:04 | 38.37593 | -121.82865 | 25010 ft | 298 kts | 340° |
| 2026-04-20 16:04 | 38.39640 | -121.83297 | 25012 ft | 298 kts | 340° |
| 2026-04-20 16:04 | 38.41692 | -121.83730 | 25011 ft | 299 kts | 340° |
| 2026-04-20 16:04 | 38.43745 | -121.84164 | 25014 ft | 299 kts | 340° |
| 2026-04-20 16:05 | 38.45799 | -121.84598 | 25016 ft | 299 kts | 340° |
| 2026-04-20 16:05 | 38.47854 | -121.85032 | 25016 ft | 299 kts | 340° |
| 2026-04-20 16:05 | 38.49908 | -121.85467 | 25016 ft | 299 kts | 340° |
| 2026-04-20 16:05 | 38.51963 | -121.85902 | 25016 ft | 299 kts | 340° |
| 2026-04-20 16:06 | 38.54015 | -121.86337 | 25026 ft | 299 kts | 340° |
| 2026-04-20 16:06 | 38.56068 | -121.86772 | 25026 ft | 299 kts | 340° |
| 2026-04-20 16:06 | 38.58122 | -121.87208 | 25026 ft | 299 kts | 340° |
| 2026-04-20 16:06 | 38.60175 | -121.87644 | 25007 ft | 299 kts | 340° |
| 2026-04-20 16:07 | 38.62234 | -121.88082 | 24989 ft | 300 kts | 340° |
| 2026-04-20 16:07 | 38.64295 | -121.88519 | 24986 ft | 300 kts | 340° |
| 2026-04-20 16:07 | 38.66357 | -121.88957 | 24983 ft | 300 kts | 340° |
| 2026-04-20 16:07 | 38.68418 | -121.89395 | 24973 ft | 300 kts | 340° |
| 2026-04-20 16:08 | 38.70483 | -121.89835 | 24973 ft | 301 kts | 340° |
| 2026-04-20 16:08 | 38.72548 | -121.90276 | 24973 ft | 301 kts | 340° |
| 2026-04-20 16:08 | 38.74615 | -121.90716 | 24973 ft | 301 kts | 340° |
| 2026-04-20 16:08 | 38.76655 | -121.91150 | 24973 ft | 301 kts | 340° |
| 2026-04-20 16:09 | 38.78721 | -121.91592 | 24979 ft | 301 kts | 340° |
| 2026-04-20 16:09 | 38.80789 | -121.92033 | 24972 ft | 301 kts | 340° |
| 2026-04-20 16:09 | 38.82858 | -121.92474 | 24972 ft | 301 kts | 340° |
| 2026-04-20 16:09 | 38.84924 | -121.92916 | 24972 ft | 301 kts | 340° |
| 2026-04-20 16:10 | 38.86989 | -121.93358 | 24971 ft | 301 kts | 340° |
| 2026-04-20 16:10 | 38.89052 | -121.93800 | 24971 ft | 301 kts | 340° |
| 2026-04-20 16:10 | 38.91119 | -121.94242 | 24971 ft | 301 kts | 340° |
| 2026-04-20 16:10 | 38.93183 | -121.94684 | 24971 ft | 301 kts | 340° |
| 2026-04-20 16:11 | 38.95248 | -121.95127 | 24974 ft | 301 kts | 340° |
| 2026-04-20 16:11 | 38.97312 | -121.95570 | 24982 ft | 301 kts | 340° |
| 2026-04-20 16:11 | 38.99380 | -121.96014 | 24974 ft | 301 kts | 340° |
| 2026-04-20 16:11 | 39.01449 | -121.96458 | 24968 ft | 301 kts | 340° |
| 2026-04-20 16:12 | 39.03518 | -121.96902 | 24966 ft | 301 kts | 340° |
| 2026-04-20 16:12 | 39.05586 | -121.97347 | 24967 ft | 301 kts | 340° |
| 2026-04-20 16:12 | 39.07654 | -121.97792 | 24967 ft | 301 kts | 340° |
| 2026-04-20 16:12 | 39.09722 | -121.98237 | 24967 ft | 301 kts | 340° |
| 2026-04-20 16:13 | 39.11790 | -121.98683 | 24969 ft | 301 kts | 340° |
| 2026-04-20 16:13 | 39.13857 | -121.99128 | 24969 ft | 301 kts | 340° |
| 2026-04-20 16:13 | 39.15923 | -121.99574 | 24971 ft | 302 kts | 340° |
| 2026-04-20 16:13 | 39.17995 | -122.00021 | 24969 ft | 302 kts | 340° |
| 2026-04-20 16:14 | 39.20068 | -122.00468 | 24971 ft | 302 kts | 340° |
| 2026-04-20 16:14 | 39.22143 | -122.00916 | 24971 ft | 302 kts | 340° |
| 2026-04-20 16:14 | 39.24214 | -122.01364 | 24974 ft | 302 kts | 340° |
| 2026-04-20 16:14 | 39.26287 | -122.01812 | 24974 ft | 302 kts | 340° |
| 2026-04-20 16:15 | 39.28361 | -122.02261 | 24974 ft | 302 kts | 340° |
| 2026-04-20 16:15 | 39.30435 | -122.02710 | 24975 ft | 302 kts | 340° |
| 2026-04-20 16:15 | 39.32509 | -122.03160 | 24975 ft | 302 kts | 340° |
| 2026-04-20 16:15 | 39.34586 | -122.03610 | 24974 ft | 303 kts | 339° |
| 2026-04-20 16:16 | 39.36666 | -122.04062 | 24974 ft | 303 kts | 339° |
| 2026-04-20 16:16 | 39.38748 | -122.04513 | 24977 ft | 303 kts | 339° |
| 2026-04-20 16:16 | 39.40829 | -122.04965 | 24977 ft | 303 kts | 339° |
| 2026-04-20 16:16 | 39.42909 | -122.05417 | 24977 ft | 303 kts | 339° |
| 2026-04-20 16:17 | 39.44990 | -122.05870 | 24974 ft | 303 kts | 339° |
| 2026-04-20 16:17 | 39.47074 | -122.06324 | 24974 ft | 303 kts | 339° |
| 2026-04-20 16:17 | 39.49153 | -122.06776 | 24974 ft | 303 kts | 339° |
| 2026-04-20 16:17 | 39.51238 | -122.07230 | 24974 ft | 303 kts | 339° |
| 2026-04-20 16:18 | 39.53322 | -122.07688 | 24974 ft | 305 kts | 339° |
| 2026-04-20 16:18 | 39.55415 | -122.08144 | 24975 ft | 305 kts | 339° |
| 2026-04-20 16:18 | 39.57508 | -122.08597 | 24975 ft | 305 kts | 339° |
| 2026-04-20 16:18 | 39.59598 | -122.09053 | 24975 ft | 304 kts | 339° |
| 2026-04-20 16:19 | 39.61659 | -122.09505 | 24973 ft | 304 kts | 339° |
| 2026-04-20 16:19 | 39.63747 | -122.09962 | 24973 ft | 304 kts | 339° |
| 2026-04-20 16:19 | 39.65833 | -122.10418 | 24973 ft | 304 kts | 339° |
| 2026-04-20 16:19 | 39.67920 | -122.10875 | 24973 ft | 304 kts | 339° |
| 2026-04-20 16:20 | 39.70005 | -122.11332 | 24976 ft | 304 kts | 339° |
| 2026-04-20 16:20 | 39.72091 | -122.11788 | 24975 ft | 304 kts | 339° |
| 2026-04-20 16:20 | 39.74177 | -122.12246 | 24972 ft | 303 kts | 339° |
| 2026-04-20 16:20 | 39.76258 | -122.12703 | 24972 ft | 303 kts | 339° |
| 2026-04-20 16:21 | 39.78338 | -122.13160 | 24975 ft | 303 kts | 339° |
| 2026-04-20 16:21 | 39.80418 | -122.13617 | 24975 ft | 303 kts | 339° |
| 2026-04-20 16:21 | 39.82500 | -122.14076 | 24975 ft | 305 kts | 339° |
| 2026-04-20 16:21 | 39.84597 | -122.14538 | 24977 ft | 307 kts | 339° |
| 2026-04-20 16:22 | 39.86706 | -122.15002 | 24971 ft | 308 kts | 339° |
| 2026-04-20 16:22 | 39.88822 | -122.15466 | 24969 ft | 308 kts | 340° |
| 2026-04-20 16:22 | 39.90935 | -122.15931 | 24967 ft | 308 kts | 340° |
| 2026-04-20 16:22 | 39.93042 | -122.16396 | 24970 ft | 308 kts | 340° |
| 2026-04-20 16:23 | 39.95159 | -122.16865 | 24965 ft | 309 kts | 340° |
| 2026-04-20 16:23 | 39.97271 | -122.17329 | 24965 ft | 307 kts | 340° |
| 2026-04-20 16:23 | 39.99373 | -122.17793 | 24964 ft | 306 kts | 340° |
| 2026-04-20 16:23 | 40.01467 | -122.18257 | 24963 ft | 305 kts | 340° |
| 2026-04-20 16:24 | 40.03557 | -122.18720 | 24962 ft | 304 kts | 340° |
| 2026-04-20 16:24 | 40.05645 | -122.19182 | 24959 ft | 304 kts | 340° |
| 2026-04-20 16:24 | 40.07727 | -122.19643 | 24957 ft | 304 kts | 340° |
| 2026-04-20 16:24 | 40.09811 | -122.20106 | 25001 ft | 303 kts | 340° |
| 2026-04-20 16:25 | 40.11187 | -122.20411 | 25002 ft | 303 kts | 340° |
| 2026-04-20 16:25 | 40.13972 | -122.21029 | 24997 ft | 303 kts | 340° |
| 2026-04-20 16:25 | 40.15347 | -122.21334 | 24997 ft | 303 kts | 340° |
| 2026-04-20 16:25 | 40.17427 | -122.21796 | 24997 ft | 303 kts | 340° |
| 2026-04-20 16:26 | 40.19506 | -122.22259 | 25002 ft | 303 kts | 340° |
| 2026-04-20 16:26 | 40.21585 | -122.22721 | 25001 ft | 303 kts | 340° |
| 2026-04-20 16:26 | 40.23667 | -122.23185 | 25007 ft | 304 kts | 340° |
| 2026-04-20 16:26 | 40.25751 | -122.23649 | 25004 ft | 304 kts | 340° |
| 2026-04-20 16:27 | 40.27835 | -122.24113 | 24999 ft | 304 kts | 340° |
| 2026-04-20 16:27 | 40.29922 | -122.24579 | 24996 ft | 304 kts | 340° |
| 2026-04-20 16:27 | 40.32007 | -122.25044 | 24996 ft | 304 kts | 340° |
| 2026-04-20 16:27 | 40.34093 | -122.25509 | 24984 ft | 304 kts | 340° |
| 2026-04-20 16:28 | 40.36178 | -122.25974 | 24981 ft | 304 kts | 340° |
| 2026-04-20 16:28 | 40.38261 | -122.26441 | 24984 ft | 304 kts | 340° |
| 2026-04-20 16:28 | 40.40345 | -122.26908 | 24987 ft | 304 kts | 340° |
| 2026-04-20 16:28 | 40.42437 | -122.27377 | 24989 ft | 306 kts | 341° |
| 2026-04-20 16:29 | 40.44536 | -122.27844 | 24974 ft | 305 kts | 340° |
| 2026-04-20 16:29 | 40.46625 | -122.28309 | 24976 ft | 304 kts | 340° |
| 2026-04-20 16:29 | 40.48713 | -122.28781 | 24976 ft | 304 kts | 339° |
| 2026-04-20 16:29 | 40.50793 | -122.29269 | 24975 ft | 301 kts | 336° |
| 2026-04-20 16:30 | 40.52826 | -122.29894 | 24976 ft | 300 kts | 335° |
| 2026-04-20 16:30 | 40.54858 | -122.30521 | 24977 ft | 300 kts | 335° |
| 2026-04-20 16:30 | 40.56894 | -122.31140 | 24973 ft | 300 kts | 335° |
| 2026-04-20 16:30 | 40.58928 | -122.31759 | 24988 ft | 301 kts | 336° |
| 2026-04-20 16:31 | 40.60942 | -122.32375 | 24989 ft | 301 kts | 336° |
| 2026-04-20 16:31 | 40.62980 | -122.32999 | 24986 ft | 301 kts | 336° |
| 2026-04-20 16:31 | 40.65018 | -122.33623 | 24983 ft | 301 kts | 336° |
| 2026-04-20 16:31 | 40.67057 | -122.34248 | 24982 ft | 301 kts | 336° |
| 2026-04-20 16:32 | 40.69098 | -122.34873 | 24979 ft | 301 kts | 336° |
| 2026-04-20 16:32 | 40.71137 | -122.35499 | 24978 ft | 301 kts | 336° |
| 2026-04-20 16:32 | 40.73183 | -122.36125 | 24967 ft | 301 kts | 336° |
| 2026-04-20 16:32 | 40.75212 | -122.36757 | 24968 ft | 299 kts | 335° |
| 2026-04-20 16:33 | 40.77246 | -122.37379 | 24972 ft | 301 kts | 336° |
| 2026-04-20 16:33 | 40.79291 | -122.38000 | 24968 ft | 302 kts | 336° |
| 2026-04-20 16:33 | 40.81336 | -122.38631 | 24968 ft | 302 kts | 336° |
| 2026-04-20 16:33 | 40.83408 | -122.39274 | 24943 ft | 301 kts | 336° |
| 2026-04-20 16:34 | 40.85444 | -122.39905 | 24959 ft | 300 kts | 338° |
| 2026-04-20 16:34 | 40.87444 | -122.40509 | 24959 ft | 297 kts | 336° |
| 2026-04-20 16:34 | 40.89455 | -122.41133 | 24961 ft | 297 kts | 336° |
| 2026-04-20 16:34 | 40.91468 | -122.41761 | 24962 ft | 298 kts | 337° |
| 2026-04-20 16:35 | 40.93487 | -122.42386 | 24992 ft | 298 kts | 338° |
| 2026-04-20 16:35 | 40.95517 | -122.43010 | 24978 ft | 300 kts | 338° |
| 2026-04-20 16:35 | 40.97557 | -122.43638 | 24979 ft | 301 kts | 338° |
| 2026-04-20 16:35 | 40.99600 | -122.44272 | 24976 ft | 302 kts | 338° |
| 2026-04-20 16:36 | 41.01652 | -122.44908 | 24978 ft | 303 kts | 338° |
| 2026-04-20 16:36 | 41.03706 | -122.45543 | 24977 ft | 303 kts | 338° |
| 2026-04-20 16:36 | 41.05760 | -122.46181 | 24977 ft | 304 kts | 338° |
| 2026-04-20 16:36 | 41.07819 | -122.46820 | 24983 ft | 304 kts | 338° |
| 2026-04-20 16:37 | 41.09878 | -122.47458 | 24982 ft | 304 kts | 338° |
| 2026-04-20 16:37 | 41.11932 | -122.48097 | 24984 ft | 304 kts | 338° |
| 2026-04-20 16:37 | 41.13989 | -122.48731 | 24983 ft | 303 kts | 338° |
| 2026-04-20 16:37 | 41.16047 | -122.49380 | 24975 ft | 305 kts | 338° |
| 2026-04-20 16:38 | 41.18114 | -122.50022 | 24974 ft | 306 kts | 338° |
| 2026-04-20 16:38 | 41.20185 | -122.50663 | 24974 ft | 306 kts | 338° |
| 2026-04-20 16:38 | 41.22251 | -122.51305 | 24969 ft | 305 kts | 338° |
| 2026-04-20 16:38 | 41.24314 | -122.51950 | 24950 ft | 303 kts | 338° |
| 2026-04-20 16:39 | 41.26350 | -122.52590 | 24967 ft | 301 kts | 338° |
| 2026-04-20 16:39 | 41.28393 | -122.53227 | 24963 ft | 301 kts | 338° |
| 2026-04-20 16:39 | 41.30430 | -122.53859 | 24963 ft | 301 kts | 339° |
| 2026-04-20 16:39 | 41.32462 | -122.54497 | 24960 ft | 300 kts | 339° |
| 2026-04-20 16:40 | 41.34493 | -122.55132 | 24961 ft | 300 kts | 339° |
| 2026-04-20 16:40 | 41.36526 | -122.55769 | 24954 ft | 300 kts | 339° |
| 2026-04-20 16:40 | 41.38558 | -122.56402 | 24948 ft | 299 kts | 339° |
| 2026-04-20 16:40 | 41.40576 | -122.57037 | 24939 ft | 298 kts | 339° |
| 2026-04-20 16:41 | 41.42588 | -122.57667 | 24942 ft | 296 kts | 339° |
| 2026-04-20 16:41 | 41.44597 | -122.58294 | 24927 ft | 296 kts | 339° |
| 2026-04-20 16:41 | 41.46598 | -122.58925 | 24927 ft | 296 kts | 339° |
| 2026-04-20 16:41 | 41.48608 | -122.59570 | 24928 ft | 299 kts | 340° |
| 2026-04-20 16:42 | 41.50632 | -122.60190 | 24911 ft | 297 kts | 341° |
| 2026-04-20 16:42 | 41.52642 | -122.60818 | 24910 ft | 295 kts | 339° |
| 2026-04-20 16:42 | 41.54636 | -122.61476 | 24909 ft | 296 kts | 340° |
| 2026-04-20 16:42 | 41.56652 | -122.62093 | 24905 ft | 298 kts | 341° |
| 2026-04-20 16:43 | 41.58647 | -122.62711 | 24901 ft | 299 kts | 340° |
| 2026-04-20 16:43 | 41.60671 | -122.63359 | 24904 ft | 300 kts | 340° |
| 2026-04-20 16:43 | 41.62703 | -122.64007 | 24906 ft | 301 kts | 340° |
| 2026-04-20 16:43 | 41.64744 | -122.64650 | 24875 ft | 301 kts | 340° |
| 2026-04-20 16:44 | 41.66774 | -122.65291 | 24901 ft | 300 kts | 342° |
| 2026-04-20 16:44 | 41.68803 | -122.65925 | 24901 ft | 299 kts | 341° |
| 2026-04-20 16:44 | 41.70832 | -122.66567 | 24903 ft | 300 kts | 340° |
| 2026-04-20 16:44 | 41.72865 | -122.67219 | 24894 ft | 301 kts | 340° |
| 2026-04-20 16:45 | 41.74904 | -122.67864 | 24898 ft | 301 kts | 341° |
| 2026-04-20 16:45 | 41.76942 | -122.68509 | 24890 ft | 301 kts | 341° |
| 2026-04-20 16:45 | 41.78949 | -122.69166 | 24891 ft | 295 kts | 340° |
| 2026-04-20 16:45 | 41.80954 | -122.69782 | 24896 ft | 294 kts | 341° |
| 2026-04-20 16:46 | 41.82929 | -122.70382 | 23964 ft | 297 kts | 343° |
| 2026-04-20 16:46 | 41.84996 | -122.71056 | 22721 ft | 308 kts | 343° |
| 2026-04-20 16:46 | 41.87067 | -122.71723 | 21776 ft | 303 kts | 344° |
| 2026-04-20 16:46 | 41.89099 | -122.72358 | 20839 ft | 298 kts | 344° |
| 2026-04-20 16:47 | 41.91107 | -122.72998 | 19911 ft | 295 kts | 344° |
| 2026-04-20 16:47 | 41.93095 | -122.73634 | 19036 ft | 292 kts | 344° |
| 2026-04-20 16:47 | 41.95063 | -122.74258 | 18169 ft | 289 kts | 344° |
| 2026-04-20 16:47 | 41.97015 | -122.74879 | 17263 ft | 286 kts | 344° |
| 2026-04-20 16:48 | 41.98843 | -122.75464 | 17171 ft | 253 kts | 343° |
| 2026-04-20 16:48 | 42.00563 | -122.76023 | 16199 ft | 263 kts | 343° |
| 2026-04-20 16:48 | 42.02378 | -122.76594 | 15433 ft | 267 kts | 343° |
| 2026-04-20 16:48 | 42.04181 | -122.77177 | 14724 ft | 266 kts | 343° |
| 2026-04-20 16:49 | 42.05964 | -122.77758 | 14082 ft | 262 kts | 343° |
| 2026-04-20 16:49 | 42.07726 | -122.78328 | 13365 ft | 260 kts | 343° |
| 2026-04-20 16:49 | 42.09490 | -122.78882 | 12476 ft | 259 kts | 343° |
| 2026-04-20 16:49 | 42.11225 | -122.79424 | 11653 ft | 253 kts | 346° |
| 2026-04-20 16:50 | 42.12933 | -122.79946 | 10866 ft | 250 kts | 345° |
| 2026-04-20 16:50 | 42.14604 | -122.80508 | 10189 ft | 245 kts | 344° |
| 2026-04-20 16:50 | 42.16232 | -122.81098 | 9593 ft | 241 kts | 344° |
| 2026-04-20 16:50 | 42.17866 | -122.81596 | 9015 ft | 240 kts | 349° |
| 2026-04-20 16:51 | 42.19450 | -122.82068 | 8398 ft | 232 kts | 345° |
| 2026-04-20 16:51 | 42.20997 | -122.82574 | 7730 ft | 229 kts | 348° |
| 2026-04-20 16:51 | 42.22517 | -122.83064 | 7271 ft | 220 kts | 346° |
| 2026-04-20 16:51 | 42.23967 | -122.83530 | 6993 ft | 203 kts | 347° |
| 2026-04-20 16:52 | 42.25238 | -122.83929 | 6981 ft | 174 kts | 346° |
| 2026-04-20 16:52 | 42.26352 | -122.84299 | 6977 ft | 157 kts | 346° |
| 2026-04-20 16:52 | 42.27368 | -122.84627 | 6978 ft | 144 kts | 346° |
| 2026-04-20 16:52 | 42.28314 | -122.84932 | 6978 ft | 135 kts | 347° |
| 2026-04-20 16:53 | 42.29283 | -122.85260 | 7018 ft | 151 kts | 346° |
| 2026-04-20 16:53 | 42.30330 | -122.85596 | 6881 ft | 161 kts | 347° |
| 2026-04-20 16:53 | 42.31478 | -122.85963 | 6330 ft | 178 kts | 345° |
| 2026-04-20 16:53 | 42.32690 | -122.86612 | 5604 ft | 193 kts | 334° |
| 2026-04-20 16:54 | 42.33886 | -122.87371 | 5165 ft | 187 kts | 334° |
| 2026-04-20 16:54 | 42.35059 | -122.88124 | 4664 ft | 186 kts | 334° |
| 2026-04-20 16:54 | 42.36216 | -122.88865 | 4188 ft | 182 kts | 334° |
| 2026-04-20 16:54 | 42.37337 | -122.89633 | 3671 ft | 180 kts | 330° |
| 2026-04-20 16:55 | 42.38402 | -122.90485 | 3218 ft | 174 kts | 329° |
| 2026-04-20 16:55 | 42.39441 | -122.91290 | 2718 ft | 170 kts | 329° |
| 2026-04-20 16:55 | 42.40448 | -122.92069 | 2295 ft | 164 kts | 329° |
| 2026-04-20 16:55 | 42.41488 | -122.92520 | 1998 ft | 151 kts | 6° |
| 2026-04-20 16:56 | 42.42283 | -122.91851 | 1985 ft | 129 kts | 62° |
| 2026-04-20 16:56 | 42.42283 | -122.90777 | 1979 ft | 112 kts | 118° |
| 2026-04-20 16:56 | 42.41907 | -122.89863 | 2010 ft | 114 kts | 116° |
| 2026-04-20 16:56 | 42.41465 | -122.88966 | 1952 ft | 116 kts | 148° |
| 2026-04-20 16:57 | 42.40718 | -122.88832 | 1801 ft | 106 kts | 180° |
| 2026-04-20 16:57 | 42.40009 | -122.88616 | 1598 ft | 102 kts | 163° |
| 2026-04-20 16:57 | 42.39329 | -122.88276 | 1452 ft | 105 kts | 160° |
| 2026-04-20 16:57 | 42.38659 | -122.87934 | 1323 ft | 102 kts | 159° |
| 2026-04-20 16:58 | 42.38035 | -122.87614 | 1309 ft | 87 kts | 159° |
| 2026-04-20 16:58 | 42.37584 | -122.87377 | 1314 ft | 53 kts | 159° |
| 2026-04-20 16:58 | 42.37375 | -122.87267 | 1319 ft | 9 kts | 176° |
| 2026-04-20 16:58 | 42.37340 | -122.87314 | 1319 ft | 7 kts | 245° |
| 2026-04-20 16:59 | 42.37300 | -122.87381 | 1318 ft | 12 kts | 195° |
| 2026-04-20 16:59 | 42.37218 | -122.87355 | 1319 ft | 13 kts | 189° |
| 2026-04-20 16:59 | 42.37219 | -122.87460 | 1317 ft | 14 kts | 271° |
| 2026-04-20 16:59 | 42.37186 | -122.87542 | 1320 ft | 8 kts | 215° |
| 2026-04-20 17:00 | 42.37133 | -122.87588 | 1320 ft | 0 kts | 282° |
| 2026-04-20 17:00 | 42.37136 | -122.87599 | 1320 ft | 4 kts | 289° |
| 2026-04-20 17:00 | 42.37137 | -122.87603 | 1320 ft | 0 kts | 294° |